sensor_id;sensor_type;location;lat;lon;timestamp;pressure;altitude;pressure_sealevel;temperature;humidity
13456;BME280;6800;50.940;6.940;2023-05-31T00:00:46;101616.13;;;23.56;41.48
13456;BME280;6800;50.940;6.940;2023-05-31T00:04:48;101621.44;;;24.10;40.29
13456;BME280;6800;50.940;6.940;2023-05-31T00:08:49;101623.25;;;24.10;40.37
13456;BME280;6800;50.940;6.940;2023-05-31T00:12:50;101621.28;;;24.29;40.06
13456;BME280;6800;50.940;6.940;2023-05-31T00:16:52;101626.03;;;24.35;39.83
13456;BME280;6800;50.940;6.940;2023-05-31T00:21:13;101625.19;;;23.63;40.73
13456;BME280;6800;50.940;6.940;2023-05-31T00:25:15;101609.69;;;23.49;41.44
13456;BME280;6800;50.940;6.940;2023-05-31T00:29:16;101613.38;;;23.92;41.24
13456;BME280;6800;50.940;6.940;2023-05-31T00:33:18;101615.59;;;23.97;40.46
13456;BME280;6800;50.940;6.940;2023-05-31T00:37:20;101614.03;;;23.77;41.39
13456;BME280;6800;50.940;6.940;2023-05-31T00:41:21;101615.63;;;23.43;42.11
13456;BME280;6800;50.940;6.940;2023-05-31T00:45:24;101618.34;;;23.60;41.51
13456;BME280;6800;50.940;6.940;2023-05-31T00:49:25;101618.34;;;23.60;41.91
13456;BME280;6800;50.940;6.940;2023-05-31T00:53:28;101620.84;;;23.35;41.85
13456;BME280;6800;50.940;6.940;2023-05-31T00:57:30;101614.00;;;23.59;41.65
13456;BME280;6800;50.940;6.940;2023-05-31T01:01:31;101628.00;;;23.61;41.52
13456;BME280;6800;50.940;6.940;2023-05-31T01:05:35;101624.47;;;24.86;38.68
13456;BME280;6800;50.940;6.940;2023-05-31T01:09:40;101623.00;;;24.73;38.68
13456;BME280;6800;50.940;6.940;2023-05-31T01:18:14;101616.25;;;24.79;38.42
13456;BME280;6800;50.940;6.940;2023-05-31T01:27:01;101621.22;;;24.39;39.64
13456;BME280;6800;50.940;6.940;2023-05-31T01:31:11;101619.25;;;22.38;43.77
13456;BME280;6800;50.940;6.940;2023-05-31T01:35:15;101616.31;;;22.89;42.67
13456;BME280;6800;50.940;6.940;2023-05-31T01:39:21;101618.81;;;23.46;41.85
13456;BME280;6800;50.940;6.940;2023-05-31T01:43:25;101617.66;;;24.30;39.57
13456;BME280;6800;50.940;6.940;2023-05-31T01:47:28;101620.53;;;22.72;43.03
13456;BME280;6800;50.940;6.940;2023-05-31T01:51:35;101620.53;;;23.65;41.60
13456;BME280;6800;50.940;6.940;2023-05-31T01:55:37;101621.16;;;24.13;40.18
13456;BME280;6800;50.940;6.940;2023-05-31T01:59:39;101622.81;;;24.14;40.48
13456;BME280;6800;50.940;6.940;2023-05-31T02:03:41;101626.63;;;24.47;38.86
13456;BME280;6800;50.940;6.940;2023-05-31T02:07:44;101622.66;;;24.33;39.33
13456;BME280;6800;50.940;6.940;2023-05-31T02:11:47;101620.44;;;24.29;39.86
13456;BME280;6800;50.940;6.940;2023-05-31T02:15:50;101623.28;;;24.27;39.20
13456;BME280;6800;50.940;6.940;2023-05-31T02:19:52;101623.28;;;24.27;39.62
13456;BME280;6800;50.940;6.940;2023-05-31T02:23:54;101619.16;;;24.15;39.80
13456;BME280;6800;50.940;6.940;2023-05-31T02:27:55;101620.06;;;24.06;39.80
13456;BME280;6800;50.940;6.940;2023-05-31T02:31:58;101617.97;;;22.99;42.25
13456;BME280;6800;50.940;6.940;2023-05-31T02:36:00;101621.66;;;22.79;42.71
13456;BME280;6800;50.940;6.940;2023-05-31T02:40:02;101623.19;;;22.72;42.74
13456;BME280;6800;50.940;6.940;2023-05-31T02:44:09;101619.22;;;23.05;42.35
13456;BME280;6800;50.940;6.940;2023-05-31T02:48:10;101619.16;;;23.34;41.58
13456;BME280;6800;50.940;6.940;2023-05-31T02:52:12;101615.56;;;24.07;40.16
13456;BME280;6800;50.940;6.940;2023-05-31T02:56:13;101615.41;;;23.07;42.19
13456;BME280;6800;50.940;6.940;2023-05-31T03:00:15;101614.78;;;22.58;43.14
13456;BME280;6800;50.940;6.940;2023-05-31T03:04:18;101612.63;;;23.09;42.43
13456;BME280;6800;50.940;6.940;2023-05-31T03:08:23;101614.56;;;23.16;41.93
13456;BME280;6800;50.940;6.940;2023-05-31T03:12:24;101616.25;;;23.54;41.17
13456;BME280;6800;50.940;6.940;2023-05-31T03:16:26;101610.63;;;23.84;40.25
13456;BME280;6800;50.940;6.940;2023-05-31T03:20:28;101619.75;;;23.08;42.10
13456;BME280;6800;50.940;6.940;2023-05-31T03:24:32;101618.66;;;24.02;39.91
13456;BME280;6800;50.940;6.940;2023-05-31T03:28:33;101617.69;;;23.76;40.40
13456;BME280;6800;50.940;6.940;2023-05-31T03:32:34;101619.63;;;23.83;40.12
13456;BME280;6800;50.940;6.940;2023-05-31T03:36:38;101614.66;;;23.34;40.99
13456;BME280;6800;50.940;6.940;2023-05-31T03:40:39;101613.97;;;23.86;40.19
13456;BME280;6800;50.940;6.940;2023-05-31T03:44:41;101611.75;;;23.82;40.27
13456;BME280;6800;50.940;6.940;2023-05-31T03:48:42;101610.56;;;23.94;39.84
13456;BME280;6800;50.940;6.940;2023-05-31T03:52:44;101610.41;;;23.95;39.76
13456;BME280;6800;50.940;6.940;2023-05-31T03:56:45;101605.34;;;23.75;40.31
13456;BME280;6800;50.940;6.940;2023-05-31T04:00:49;101606.63;;;23.98;39.98
13456;BME280;6800;50.940;6.940;2023-05-31T04:04:51;101616.72;;;23.94;40.12
13456;BME280;6800;50.940;6.940;2023-05-31T04:08:52;101609.72;;;23.93;39.97
13456;BME280;6800;50.940;6.940;2023-05-31T04:12:54;101610.06;;;24.08;39.66
13456;BME280;6800;50.940;6.940;2023-05-31T04:16:55;101611.38;;;24.04;39.54
13456;BME280;6800;50.940;6.940;2023-05-31T04:20:56;101613.00;;;23.87;40.01
13456;BME280;6800;50.940;6.940;2023-05-31T04:24:58;101622.13;;;24.30;39.54
13456;BME280;6800;50.940;6.940;2023-05-31T04:29:00;101613.13;;;24.31;39.44
13456;BME280;6800;50.940;6.940;2023-05-31T04:33:01;101616.03;;;24.37;39.12
13456;BME280;6800;50.940;6.940;2023-05-31T04:37:06;101610.38;;;24.23;39.85
13456;BME280;6800;50.940;6.940;2023-05-31T04:41:08;101614.44;;;24.44;39.68
13456;BME280;6800;50.940;6.940;2023-05-31T04:45:10;101611.59;;;24.81;38.68
13456;BME280;6800;50.940;6.940;2023-05-31T04:49:12;101614.78;;;24.85;38.49
13456;BME280;6800;50.940;6.940;2023-05-31T04:53:14;101612.44;;;23.57;40.97
13456;BME280;6800;50.940;6.940;2023-05-31T04:57:15;101614.31;;;24.89;38.74
13456;BME280;6800;50.940;6.940;2023-05-31T05:01:17;101616.44;;;25.11;37.75
13456;BME280;6800;50.940;6.940;2023-05-31T05:05:19;101617.56;;;25.01;38.26
13456;BME280;6800;50.940;6.940;2023-05-31T05:09:20;101619.97;;;24.86;38.18
13456;BME280;6800;50.940;6.940;2023-05-31T05:13:22;101609.56;;;26.18;36.37
13456;BME280;6800;50.940;6.940;2023-05-31T05:17:23;101613.63;;;26.94;35.55
13456;BME280;6800;50.940;6.940;2023-05-31T05:21:25;101615.13;;;27.60;33.98
13456;BME280;6800;50.940;6.940;2023-05-31T05:25:27;101612.88;;;28.33;32.79
13456;BME280;6800;50.940;6.940;2023-05-31T05:29:28;101611.84;;;28.79;32.32
13456;BME280;6800;50.940;6.940;2023-05-31T05:33:30;101611.91;;;29.23;31.79
13456;BME280;6800;50.940;6.940;2023-05-31T05:37:31;101603.97;;;29.65;30.31
13456;BME280;6800;50.940;6.940;2023-05-31T05:41:33;101613.88;;;29.94;30.23
13456;BME280;6800;50.940;6.940;2023-05-31T05:45:34;101607.63;;;30.99;28.40
13456;BME280;6800;50.940;6.940;2023-05-31T05:49:36;101607.28;;;30.81;28.49
13456;BME280;6800;50.940;6.940;2023-05-31T05:53:37;101611.16;;;31.00;27.67
13456;BME280;6800;50.940;6.940;2023-05-31T05:57:44;101616.06;;;30.41;28.84
13456;BME280;6800;50.940;6.940;2023-05-31T06:01:46;101618.09;;;31.09;28.53
13456;BME280;6800;50.940;6.940;2023-05-31T06:05:47;101622.34;;;32.19;27.33
13456;BME280;6800;50.940;6.940;2023-05-31T06:09:49;101617.69;;;31.46;27.67
13456;BME280;6800;50.940;6.940;2023-05-31T06:13:51;101614.69;;;32.81;26.32
13456;BME280;6800;50.940;6.940;2023-05-31T06:17:57;101604.38;;;33.55;24.26
13456;BME280;6800;50.940;6.940;2023-05-31T06:21:58;101619.13;;;33.59;23.24
13456;BME280;6800;50.940;6.940;2023-05-31T06:26:01;101618.00;;;31.64;25.52
13456;BME280;6800;50.940;6.940;2023-05-31T06:30:02;101617.94;;;34.00;22.34
13456;BME280;6800;50.940;6.940;2023-05-31T06:34:04;101621.16;;;32.48;23.90
13456;BME280;6800;50.940;6.940;2023-05-31T06:38:06;101611.53;;;33.17;23.41
13456;BME280;6800;50.940;6.940;2023-05-31T06:42:08;101620.78;;;34.42;21.67
13456;BME280;6800;50.940;6.940;2023-05-31T06:46:09;101606.78;;;34.95;21.13
13456;BME280;6800;50.940;6.940;2023-05-31T06:50:13;101602.78;;;35.88;19.79
13456;BME280;6800;50.940;6.940;2023-05-31T06:54:14;101612.06;;;30.01;26.19
13456;BME280;6800;50.940;6.940;2023-05-31T06:58:16;101612.03;;;32.55;24.02
13456;BME280;6800;50.940;6.940;2023-05-31T07:02:18;101603.16;;;36.21;20.16
13456;BME280;6800;50.940;6.940;2023-05-31T07:06:20;101602.88;;;36.64;19.77
13456;BME280;6800;50.940;6.940;2023-05-31T07:10:23;101601.53;;;33.81;22.12
13456;BME280;6800;50.940;6.940;2023-05-31T07:14:24;101602.66;;;36.77;18.92
13456;BME280;6800;50.940;6.940;2023-05-31T07:18:26;101606.56;;;31.28;25.12
13456;BME280;6800;50.940;6.940;2023-05-31T07:22:27;101613.13;;;30.63;25.53
13456;BME280;6800;50.940;6.940;2023-05-31T07:26:28;101603.41;;;31.58;23.93
13456;BME280;6800;50.940;6.940;2023-05-31T07:30:30;101605.72;;;33.20;22.58
13456;BME280;6800;50.940;6.940;2023-05-31T07:34:31;101595.88;;;35.01;20.37
13456;BME280;6800;50.940;6.940;2023-05-31T07:38:33;101596.69;;;33.52;21.85
13456;BME280;6800;50.940;6.940;2023-05-31T07:42:34;101594.84;;;34.78;20.62
13456;BME280;6800;50.940;6.940;2023-05-31T07:46:36;101599.50;;;33.06;22.14
13456;BME280;6800;50.940;6.940;2023-05-31T07:50:38;101599.28;;;32.43;22.80
13456;BME280;6800;50.940;6.940;2023-05-31T07:54:39;101591.06;;;35.21;20.10
13456;BME280;6800;50.940;6.940;2023-05-31T07:58:41;101590.81;;;36.07;18.98
13456;BME280;6800;50.940;6.940;2023-05-31T08:02:42;101590.63;;;36.20;18.48
13456;BME280;6800;50.940;6.940;2023-05-31T08:06:44;101589.09;;;36.24;18.62
13456;BME280;6800;50.940;6.940;2023-05-31T08:10:45;101572.19;;;37.94;17.33
13456;BME280;6800;50.940;6.940;2023-05-31T08:14:47;101583.84;;;34.41;20.83
13456;BME280;6800;50.940;6.940;2023-05-31T08:18:48;101575.59;;;35.88;18.84
13456;BME280;6800;50.940;6.940;2023-05-31T08:22:49;101573.28;;;32.28;22.28
13456;BME280;6800;50.940;6.940;2023-05-31T08:26:51;101574.69;;;34.67;19.63
13456;BME280;6800;50.940;6.940;2023-05-31T08:30:53;101571.22;;;36.28;18.30
13456;BME280;6800;50.940;6.940;2023-05-31T08:34:54;101570.16;;;32.64;21.99
13456;BME280;6800;50.940;6.940;2023-05-31T08:38:56;101568.38;;;33.35;21.02
13456;BME280;6800;50.940;6.940;2023-05-31T08:43:00;101556.72;;;38.45;16.46
13456;BME280;6800;50.940;6.940;2023-05-31T08:47:19;101560.91;;;31.87;21.73
13456;BME280;6800;50.940;6.940;2023-05-31T08:51:24;101549.34;;;37.84;16.09
13456;BME280;6800;50.940;6.940;2023-05-31T08:55:26;101544.53;;;37.46;16.17
13456;BME280;6800;50.940;6.940;2023-05-31T08:59:30;101548.88;;;33.07;20.10
13456;BME280;6800;50.940;6.940;2023-05-31T09:03:32;101546.63;;;34.48;18.67
13456;BME280;6800;50.940;6.940;2023-05-31T09:07:33;101529.22;;;36.82;16.83
13456;BME280;6800;50.940;6.940;2023-05-31T09:11:36;101539.78;;;32.16;20.34
13456;BME280;6800;50.940;6.940;2023-05-31T09:15:41;101535.50;;;38.52;15.06
13456;BME280;6800;50.940;6.940;2023-05-31T09:19:53;101534.00;;;35.40;17.75
13456;BME280;6800;50.940;6.940;2023-05-31T09:23:56;101528.91;;;36.55;15.67
13456;BME280;6800;50.940;6.940;2023-05-31T09:27:58;101525.56;;;33.63;17.93
13456;BME280;6800;50.940;6.940;2023-05-31T09:32:09;101506.66;;;37.78;15.12
13456;BME280;6800;50.940;6.940;2023-05-31T09:36:12;101513.03;;;37.27;15.23
13456;BME280;6800;50.940;6.940;2023-05-31T09:40:24;101506.84;;;38.87;14.64
13456;BME280;6800;50.940;6.940;2023-05-31T09:44:26;101506.44;;;39.00;13.55
13456;BME280;6800;50.940;6.940;2023-05-31T09:48:29;101494.38;;;39.18;13.48
13456;BME280;6800;50.940;6.940;2023-05-31T09:52:31;101500.47;;;34.55;17.21
13456;BME280;6800;50.940;6.940;2023-05-31T09:56:36;101487.41;;;37.11;15.14
13456;BME280;6800;50.940;6.940;2023-05-31T10:00:44;101484.88;;;35.23;16.74
13456;BME280;6800;50.940;6.940;2023-05-31T10:04:47;101484.22;;;34.73;17.14
13456;BME280;6800;50.940;6.940;2023-05-31T10:08:50;101482.22;;;36.05;15.42
13456;BME280;6800;50.940;6.940;2023-05-31T10:12:54;101475.31;;;33.92;18.15
13456;BME280;6800;50.940;6.940;2023-05-31T10:16:58;101481.41;;;36.17;16.46
13456;BME280;6800;50.940;6.940;2023-05-31T10:21:17;101477.50;;;32.95;18.54
13456;BME280;6800;50.940;6.940;2023-05-31T10:25:48;101476.13;;;35.69;16.05
13456;BME280;6800;50.940;6.940;2023-05-31T10:29:55;101469.22;;;35.96;16.07
13456;BME280;6800;50.940;6.940;2023-05-31T10:34:00;101452.63;;;34.79;17.15
13456;BME280;6800;50.940;6.940;2023-05-31T10:38:05;101453.88;;;36.13;16.53
13456;BME280;6800;50.940;6.940;2023-05-31T10:42:20;101432.38;;;36.98;15.72
13456;BME280;6800;50.940;6.940;2023-05-31T10:46:28;101448.88;;;35.27;16.08
13456;BME280;6800;50.940;6.940;2023-05-31T10:50:32;101433.50;;;37.13;14.79
13456;BME280;6800;50.940;6.940;2023-05-31T10:54:33;101429.50;;;36.07;16.09
13456;BME280;6800;50.940;6.940;2023-05-31T11:02:47;101431.97;;;38.28;14.46
13456;BME280;6800;50.940;6.940;2023-05-31T11:06:52;101424.50;;;36.38;15.02
13456;BME280;6800;50.940;6.940;2023-05-31T11:11:42;101422.19;;;39.72;13.09
13456;BME280;6800;50.940;6.940;2023-05-31T11:15:46;101417.03;;;35.87;16.18
13456;BME280;6800;50.940;6.940;2023-05-31T11:19:51;101405.16;;;39.34;13.20
13456;BME280;6800;50.940;6.940;2023-05-31T11:23:53;101399.06;;;40.32;12.53
13456;BME280;6800;50.940;6.940;2023-05-31T11:28:05;101400.41;;;37.99;14.45
13456;BME280;6800;50.940;6.940;2023-05-31T11:32:07;101408.72;;;35.00;17.26
13456;BME280;6800;50.940;6.940;2023-05-31T11:36:08;101393.16;;;35.78;16.58
13456;BME280;6800;50.940;6.940;2023-05-31T11:40:12;101407.69;;;35.01;16.67
13456;BME280;6800;50.940;6.940;2023-05-31T11:44:19;101407.44;;;35.85;15.51
13456;BME280;6800;50.940;6.940;2023-05-31T11:48:29;101397.41;;;38.17;14.24
13456;BME280;6800;50.940;6.940;2023-05-31T11:52:38;101375.75;;;38.71;13.89
13456;BME280;6800;50.940;6.940;2023-05-31T11:56:40;101379.25;;;38.45;14.61
13456;BME280;6800;50.940;6.940;2023-05-31T12:00:44;101379.69;;;36.06;16.17
13456;BME280;6800;50.940;6.940;2023-05-31T12:04:46;101370.44;;;38.81;13.77
13456;BME280;6800;50.940;6.940;2023-05-31T12:08:51;101370.34;;;39.02;13.30
13456;BME280;6800;50.940;6.940;2023-05-31T12:12:53;101356.38;;;38.12;14.15
13456;BME280;6800;50.940;6.940;2023-05-31T12:17:02;101369.44;;;35.96;15.77
13456;BME280;6800;50.940;6.940;2023-05-31T12:21:08;101351.28;;;33.88;17.71
13456;BME280;6800;50.940;6.940;2023-05-31T12:25:10;101351.38;;;36.53;15.73
13456;BME280;6800;50.940;6.940;2023-05-31T12:29:12;101340.81;;;38.30;14.56
13456;BME280;6800;50.940;6.940;2023-05-31T12:33:16;101337.69;;;38.86;14.30
13456;BME280;6800;50.940;6.940;2023-05-31T12:37:17;101333.06;;;37.83;14.82
13456;BME280;6800;50.940;6.940;2023-05-31T12:41:20;101333.16;;;36.82;16.13
13456;BME280;6800;50.940;6.940;2023-05-31T12:45:22;101310.72;;;38.24;15.65
13456;BME280;6800;50.940;6.940;2023-05-31T12:49:25;101320.22;;;35.52;17.17
13456;BME280;6800;50.940;6.940;2023-05-31T12:53:30;101329.38;;;33.89;18.75
13456;BME280;6800;50.940;6.940;2023-05-31T12:57:32;101332.44;;;35.31;17.31
13456;BME280;6800;50.940;6.940;2023-05-31T13:01:34;101325.09;;;35.20;17.45
13456;BME280;6800;50.940;6.940;2023-05-31T13:05:36;101317.44;;;33.97;19.27
13456;BME280;6800;50.940;6.940;2023-05-31T13:09:37;101325.41;;;34.82;17.90
13456;BME280;6800;50.940;6.940;2023-05-31T13:13:39;101320.50;;;33.57;20.46
13456;BME280;6800;50.940;6.940;2023-05-31T13:17:43;101314.19;;;32.76;21.18
13456;BME280;6800;50.940;6.940;2023-05-31T13:21:45;101313.97;;;33.09;22.17
13456;BME280;6800;50.940;6.940;2023-05-31T13:25:46;101305.41;;;34.11;21.41
13456;BME280;6800;50.940;6.940;2023-05-31T13:29:48;101300.94;;;33.55;21.99
13456;BME280;6800;50.940;6.940;2023-05-31T13:33:49;101300.72;;;33.01;22.27
13456;BME280;6800;50.940;6.940;2023-05-31T13:37:53;101299.66;;;34.73;21.11
13456;BME280;6800;50.940;6.940;2023-05-31T13:41:55;101289.25;;;33.30;22.47
13456;BME280;6800;50.940;6.940;2023-05-31T13:45:57;101292.19;;;33.53;21.96
13456;BME280;6800;50.940;6.940;2023-05-31T13:49:59;101285.59;;;32.87;22.95
13456;BME280;6800;50.940;6.940;2023-05-31T13:54:00;101284.25;;;33.34;22.53
13456;BME280;6800;50.940;6.940;2023-05-31T13:58:05;101293.31;;;32.83;22.30
13456;BME280;6800;50.940;6.940;2023-05-31T14:02:07;101273.28;;;33.90;21.23
13456;BME280;6800;50.940;6.940;2023-05-31T14:06:08;101272.06;;;33.43;21.50
13456;BME280;6800;50.940;6.940;2023-05-31T14:10:10;101243.19;;;31.27;24.13
13456;BME280;6800;50.940;6.940;2023-05-31T14:14:11;101258.59;;;32.36;22.40
13456;BME280;6800;50.940;6.940;2023-05-31T14:18:16;101262.66;;;32.58;22.51
13456;BME280;6800;50.940;6.940;2023-05-31T14:22:17;101260.38;;;34.10;20.78
13456;BME280;6800;50.940;6.940;2023-05-31T14:26:19;101261.66;;;32.53;22.41
13456;BME280;6800;50.940;6.940;2023-05-31T14:30:20;101256.59;;;32.63;22.60
13456;BME280;6800;50.940;6.940;2023-05-31T14:34:21;101243.38;;;33.35;21.65
13456;BME280;6800;50.940;6.940;2023-05-31T14:38:23;101244.06;;;33.92;21.42
13456;BME280;6800;50.940;6.940;2023-05-31T14:42:36;101247.09;;;32.85;22.44
13456;BME280;6800;50.940;6.940;2023-05-31T14:46:37;101235.78;;;33.68;21.71
13456;BME280;6800;50.940;6.940;2023-05-31T14:50:38;101233.91;;;32.95;22.49
13456;BME280;6800;50.940;6.940;2023-05-31T14:54:44;101230.34;;;32.25;23.37
13456;BME280;6800;50.940;6.940;2023-05-31T14:58:46;101229.09;;;31.44;23.65
13456;BME280;6800;50.940;6.940;2023-05-31T15:02:48;101228.38;;;31.82;23.33
13456;BME280;6800;50.940;6.940;2023-05-31T15:06:50;101220.25;;;32.83;21.95
13456;BME280;6800;50.940;6.940;2023-05-31T15:10:52;101217.34;;;32.85;22.65
13456;BME280;6800;50.940;6.940;2023-05-31T15:14:53;101228.28;;;33.46;21.88
13456;BME280;6800;50.940;6.940;2023-05-31T15:18:55;101226.06;;;33.36;22.54
13456;BME280;6800;50.940;6.940;2023-05-31T15:22:56;101226.69;;;32.00;23.45
13456;BME280;6800;50.940;6.940;2023-05-31T15:26:58;101235.03;;;33.37;22.11
13456;BME280;6800;50.940;6.940;2023-05-31T15:30:59;101241.31;;;32.75;22.56
13456;BME280;6800;50.940;6.940;2023-05-31T15:35:04;101232.84;;;31.24;23.91
13456;BME280;6800;50.940;6.940;2023-05-31T15:39:06;101224.09;;;31.54;24.23
13456;BME280;6800;50.940;6.940;2023-05-31T15:43:07;101219.06;;;33.53;22.25
13456;BME280;6800;50.940;6.940;2023-05-31T15:47:09;101223.88;;;31.49;23.74
13456;BME280;6800;50.940;6.940;2023-05-31T15:51:11;101202.47;;;33.25;22.35
13456;BME280;6800;50.940;6.940;2023-05-31T15:55:12;101211.50;;;32.06;23.07
13456;BME280;6800;50.940;6.940;2023-05-31T15:59:13;101215.16;;;33.86;21.77
13456;BME280;6800;50.940;6.940;2023-05-31T16:03:15;101215.41;;;32.16;23.52
13456;BME280;6800;50.940;6.940;2023-05-31T16:07:17;101209.53;;;33.69;21.51
13456;BME280;6800;50.940;6.940;2023-05-31T16:11:18;101196.88;;;33.20;22.64
13456;BME280;6800;50.940;6.940;2023-05-31T16:15:20;101194.34;;;33.25;21.81
13456;BME280;6800;50.940;6.940;2023-05-31T16:19:21;101181.09;;;32.86;22.32
13456;BME280;6800;50.940;6.940;2023-05-31T16:23:23;101185.25;;;33.13;22.60
13456;BME280;6800;50.940;6.940;2023-05-31T16:27:27;101192.72;;;34.74;20.88
13456;BME280;6800;50.940;6.940;2023-05-31T16:31:33;101200.25;;;32.84;22.57
13456;BME280;6800;50.940;6.940;2023-05-31T16:35:37;101190.38;;;32.72;22.85
13456;BME280;6800;50.940;6.940;2023-05-31T16:39:39;101191.53;;;31.43;24.23
13456;BME280;6800;50.940;6.940;2023-05-31T16:43:41;101190.13;;;32.04;23.10
13456;BME280;6800;50.940;6.940;2023-05-31T16:47:42;101205.13;;;31.81;24.12
13456;BME280;6800;50.940;6.940;2023-05-31T16:51:44;101191.03;;;31.72;24.19
13456;BME280;6800;50.940;6.940;2023-05-31T16:55:45;101189.38;;;32.91;23.04
13456;BME280;6800;50.940;6.940;2023-05-31T16:59:47;101187.97;;;31.29;24.28
13456;BME280;6800;50.940;6.940;2023-05-31T17:03:48;101186.69;;;32.60;23.37
13456;BME280;6800;50.940;6.940;2023-05-31T17:07:50;101182.22;;;31.96;24.37
13456;BME280;6800;50.940;6.940;2023-05-31T17:11:54;101187.31;;;32.17;24.17
13456;BME280;6800;50.940;6.940;2023-05-31T17:15:57;101187.97;;;32.57;23.61
13456;BME280;6800;50.940;6.940;2023-05-31T17:19:59;101186.22;;;33.00;23.50
13456;BME280;6800;50.940;6.940;2023-05-31T17:24:01;101178.03;;;31.43;24.99
13456;BME280;6800;50.940;6.940;2023-05-31T17:28:02;101178.63;;;31.32;25.03
13456;BME280;6800;50.940;6.940;2023-05-31T17:32:04;101179.56;;;31.83;24.38
13456;BME280;6800;50.940;6.940;2023-05-31T17:36:06;101173.75;;;31.73;24.74
13456;BME280;6800;50.940;6.940;2023-05-31T17:40:08;101182.13;;;31.52;24.64
13456;BME280;6800;50.940;6.940;2023-05-31T17:44:09;101179.56;;;32.34;23.98
13456;BME280;6800;50.940;6.940;2023-05-31T17:48:11;101177.13;;;32.19;23.63
13456;BME280;6800;50.940;6.940;2023-05-31T17:52:12;101175.06;;;31.58;24.11
13456;BME280;6800;50.940;6.940;2023-05-31T17:56:14;101172.59;;;31.36;24.86
13456;BME280;6800;50.940;6.940;2023-05-31T18:00:15;101170.72;;;31.37;24.78
13456;BME280;6800;50.940;6.940;2023-05-31T18:04:17;101177.69;;;31.84;24.35
13456;BME280;6800;50.940;6.940;2023-05-31T18:08:19;101170.16;;;30.96;25.59
13456;BME280;6800;50.940;6.940;2023-05-31T18:12:23;101176.78;;;30.87;25.84
13456;BME280;6800;50.940;6.940;2023-05-31T18:16:27;101169.31;;;31.98;24.55
13456;BME280;6800;50.940;6.940;2023-05-31T18:20:29;101185.75;;;31.90;24.66
13456;BME280;6800;50.940;6.940;2023-05-31T18:24:30;101190.22;;;30.80;26.42
13456;BME280;6800;50.940;6.940;2023-05-31T18:28:31;101175.69;;;31.66;25.23
13456;BME280;6800;50.940;6.940;2023-05-31T18:32:33;101186.25;;;32.63;24.34
13456;BME280;6800;50.940;6.940;2023-05-31T18:36:38;101185.59;;;31.85;25.75
13456;BME280;6800;50.940;6.940;2023-05-31T18:40:41;101191.28;;;30.99;27.29
13456;BME280;6800;50.940;6.940;2023-05-31T18:44:42;101183.19;;;32.21;25.16
13456;BME280;6800;50.940;6.940;2023-05-31T18:48:44;101192.56;;;32.12;26.07
13456;BME280;6800;50.940;6.940;2023-05-31T18:52:47;101196.47;;;31.20;26.71
13456;BME280;6800;50.940;6.940;2023-05-31T18:56:49;101187.16;;;31.42;26.68
13456;BME280;6800;50.940;6.940;2023-05-31T19:00:51;101198.16;;;31.27;27.09
13456;BME280;6800;50.940;6.940;2023-05-31T19:04:52;101201.63;;;30.56;28.04
13456;BME280;6800;50.940;6.940;2023-05-31T19:08:54;101200.97;;;29.10;29.88
13456;BME280;6800;50.940;6.940;2023-05-31T19:12:55;101205.84;;;30.91;27.60
13456;BME280;6800;50.940;6.940;2023-05-31T19:16:57;101198.16;;;31.21;27.11
13456;BME280;6800;50.940;6.940;2023-05-31T19:20:58;101210.09;;;30.05;28.68
13456;BME280;6800;50.940;6.940;2023-05-31T19:25:00;101206.97;;;30.43;27.93
13456;BME280;6800;50.940;6.940;2023-05-31T19:29:02;101206.06;;;31.03;27.60
13456;BME280;6800;50.940;6.940;2023-05-31T19:33:04;101216.19;;;29.80;29.33
13456;BME280;6800;50.940;6.940;2023-05-31T19:37:05;101208.28;;;30.73;27.52
13456;BME280;6800;50.940;6.940;2023-05-31T19:41:07;101203.75;;;31.13;27.33
13456;BME280;6800;50.940;6.940;2023-05-31T19:45:08;101213.72;;;30.26;28.39
13456;BME280;6800;50.940;6.940;2023-05-31T19:49:10;101216.50;;;30.39;28.02
13456;BME280;6800;50.940;6.940;2023-05-31T19:53:12;101224.81;;;30.50;28.73
13456;BME280;6800;50.940;6.940;2023-05-31T19:57:13;101224.00;;;30.56;27.92
13456;BME280;6800;50.940;6.940;2023-05-31T20:01:16;101226.34;;;30.79;27.72
13456;BME280;6800;50.940;6.940;2023-05-31T20:05:18;101228.44;;;30.90;27.93
13456;BME280;6800;50.940;6.940;2023-05-31T20:09:19;101236.06;;;30.73;28.05
13456;BME280;6800;50.940;6.940;2023-05-31T20:13:21;101236.72;;;30.22;28.59
13456;BME280;6800;50.940;6.940;2023-05-31T20:17:22;101244.25;;;30.33;28.28
13456;BME280;6800;50.940;6.940;2023-05-31T20:21:24;101241.16;;;30.36;28.33
13456;BME280;6800;50.940;6.940;2023-05-31T20:25:26;101243.47;;;30.45;28.16
13456;BME280;6800;50.940;6.940;2023-05-31T20:29:28;101245.47;;;29.62;29.39
13456;BME280;6800;50.940;6.940;2023-05-31T20:33:29;101249.81;;;29.84;29.13
13456;BME280;6800;50.940;6.940;2023-05-31T20:37:30;101245.81;;;29.80;29.23
13456;BME280;6800;50.940;6.940;2023-05-31T20:41:32;101245.03;;;29.58;29.61
13456;BME280;6800;50.940;6.940;2023-05-31T20:45:33;101243.38;;;29.85;29.12
13456;BME280;6800;50.940;6.940;2023-05-31T20:49:35;101243.38;;;29.85;29.50
13456;BME280;6800;50.940;6.940;2023-05-31T20:53:37;101244.28;;;30.46;28.13
13456;BME280;6800;50.940;6.940;2023-05-31T20:57:39;101241.78;;;29.69;29.02
13456;BME280;6800;50.940;6.940;2023-05-31T21:01:41;101244.13;;;29.02;29.87
13456;BME280;6800;50.940;6.940;2023-05-31T21:05:42;101254.69;;;29.74;29.24
13456;BME280;6800;50.940;6.940;2023-05-31T21:09:44;101255.28;;;29.20;29.69
13456;BME280;6800;50.940;6.940;2023-05-31T21:13:45;101256.16;;;28.85;29.75
13456;BME280;6800;50.940;6.940;2023-05-31T21:17:50;101253.34;;;29.14;29.91
13456;BME280;6800;50.940;6.940;2023-05-31T21:21:52;101257.97;;;29.20;29.16
13456;BME280;6800;50.940;6.940;2023-05-31T21:25:53;101252.59;;;29.20;29.98
13456;BME280;6800;50.940;6.940;2023-05-31T21:29:55;101257.50;;;29.66;28.83
13456;BME280;6800;50.940;6.940;2023-05-31T21:33:56;101253.03;;;29.03;29.31
13456;BME280;6800;50.940;6.940;2023-05-31T21:37:58;101253.69;;;29.05;29.51